Terminal Aerodrome Forecast
Issued by NWS

Current Version | Previous Version | Text Only | Print | Product List | Glossary On
Versions: 1 2 3 4 5 6 7 8 9 10 11 12 13 14 15
000
FTUS43 KOAX 062320
TAFSNY
TAF
KSNY 062320Z 0700/0724 31016G27KT P6SM SKC
     FM070200 29010KT P6SM SKC
     FM071600 26010G20KT P6SM SKC=

USA.gov is the U.S. government's official web portal to all federal, state and local government web resources and services.